Time,TemperatureF,DewpointF,PressureIn,WindDirection,WindDirectionDegrees,WindSpeedMPH,WindSpeedGustMPH,Humidity,HourlyPrecipIn,Conditions,Clouds,dailyrainin,SoftwareType,DateUTC
2013-06-23 00:12:00,79.2,74.0,30.00,SSE,168,0.0,0.0,84,0.00,,,0.00,weatherlink.com 1.10,2013-06-23 05:12:00,
2013-06-23 00:27:00,80.1,74.0,30.00,South,172,0.0,0.0,82,0.00,,,0.00,weatherlink.com 1.10,2013-06-23 05:27:00,
2013-06-23 00:42:00,79.9,74.0,29.99,South,173,0.0,0.0,82,0.00,,,0.00,weatherlink.com 1.10,2013-06-23 05:42:00,
2013-06-23 00:57:00,79.7,73.0,30.00,South,177,0.0,0.0,81,0.00,,,0.00,weatherlink.com 1.10,2013-06-23 05:57:00,
2013-06-23 01:12:00,79.6,73.0,29.99,South,177,0.0,0.0,80,0.00,,,0.00,weatherlink.com 1.10,2013-06-23 06:12:00,
2013-06-23 01:27:00,79.2,73.0,29.99,SSE,161,0.0,0.0,81,0.00,,,0.00,weatherlink.com 1.10,2013-06-23 06:27:00,
2013-06-23 01:42:00,79.1,73.0,29.99,SSE,166,0.0,0.0,82,0.00,,,0.00,weatherlink.com 1.10,2013-06-23 06:42:00,
2013-06-23 01:57:00,78.6,73.0,29.99,SSE,166,0.0,0.0,83,0.00,,,0.00,weatherlink.com 1.10,2013-06-23 06:57:00,
2013-06-23 02:12:00,78.2,73.0,29.98,SSE,168,0.0,0.0,83,0.00,,,0.00,weatherlink.com 1.10,2013-06-23 07:12:00,
2013-06-23 02:27:00,78.2,73.0,29.99,South,174,0.0,0.0,83,0.00,,,0.00,weatherlink.com 1.10,2013-06-23 07:27:00,
2013-06-23 02:42:00,78.0,73.0,29.98,South,174,0.0,0.0,84,0.00,,,0.00,weatherlink.com 1.10,2013-06-23 07:42:00,
2013-06-23 02:57:00,77.5,73.0,29.98,South,174,0.0,0.0,85,0.00,,,0.00,weatherlink.com 1.10,2013-06-23 07:57:00,
2013-06-23 03:12:00,76.8,72.0,29.99,South,175,0.0,0.0,86,0.00,,,0.00,weatherlink.com 1.10,2013-06-23 08:12:00,
2013-06-23 03:27:00,76.2,72.0,29.99,South,175,0.0,0.0,87,0.00,,,0.00,weatherlink.com 1.10,2013-06-23 08:27:00,
2013-06-23 03:42:00,75.6,72.0,29.99,South,174,0.0,0.0,88,0.00,,,0.00,weatherlink.com 1.10,2013-06-23 08:42:00,
2013-06-23 03:57:00,75.1,71.0,29.99,South,175,0.0,0.0,88,0.00,,,0.00,weatherlink.com 1.10,2013-06-23 08:57:00,
2013-06-23 04:12:00,74.6,71.0,29.99,South,174,0.0,0.0,88,0.00,,,0.00,weatherlink.com 1.10,2013-06-23 09:12:00,
2013-06-23 04:27:00,74.2,71.0,29.99,South,175,0.0,0.0,88,0.00,,,0.00,weatherlink.com 1.10,2013-06-23 09:27:00,
2013-06-23 04:42:00,73.9,70.0,29.99,South,175,0.0,0.0,88,0.00,,,0.00,weatherlink.com 1.10,2013-06-23 09:42:00,
2013-06-23 04:57:00,73.5,70.0,29.99,South,174,0.0,0.0,88,0.00,,,0.00,weatherlink.com 1.10,2013-06-23 09:57:00,
2013-06-23 05:23:00,-999.0,-99.9,0.00,North,-999,-999.0,-999.0,-999,0.00,,,0.00,weatherlink.com 1.10,2013-06-23 10:23:00,
2013-06-23 05:38:00,-999.0,-99.9,29.99,North,-999,-999.0,-999.0,-999,0.00,,,0.00,weatherlink.com 1.10,2013-06-23 10:38:00,
2013-06-23 05:53:00,72.7,69.0,30.00,South,174,0.0,0.0,88,0.00,,,0.00,weatherlink.com 1.10,2013-06-23 10:53:00,
2013-06-23 06:08:00,72.7,69.0,30.00,South,175,0.0,0.0,87,0.00,,,0.00,weatherlink.com 1.10,2013-06-23 11:08:00,
2013-06-23 06:23:00,72.3,68.0,29.99,South,180,0.0,0.0,87,0.00,,,0.00,weatherlink.com 1.10,2013-06-23 11:23:00,
2013-06-23 06:38:00,72.3,68.0,30.00,South,180,0.0,0.0,87,0.00,,,0.00,weatherlink.com 1.10,2013-06-23 11:38:00,
2013-06-23 06:53:00,72.3,68.0,30.00,South,180,0.0,0.0,87,0.00,,,0.00,weatherlink.com 1.10,2013-06-23 11:53:00,
2013-06-23 07:08:00,72.5,69.0,30.00,South,180,0.0,0.0,87,0.00,,,0.00,weatherlink.com 1.10,2013-06-23 12:08:00,
2013-06-23 07:23:00,72.6,69.0,30.00,South,180,0.0,0.0,87,0.00,,,0.00,weatherlink.com 1.10,2013-06-23 12:23:00,
2013-06-23 07:38:00,73.0,69.0,30.01,South,180,0.0,0.0,86,0.00,,,0.00,weatherlink.com 1.10,2013-06-23 12:38:00,
2013-06-23 07:54:00,74.1,70.0,30.01,South,180,0.0,0.0,86,0.00,,,0.00,weatherlink.com 1.10,2013-06-23 12:54:00,
2013-06-23 08:09:00,75.5,71.0,30.02,South,180,0.0,0.0,85,0.00,,,0.00,weatherlink.com 1.10,2013-06-23 13:09:00,
2013-06-23 08:24:00,76.9,72.0,30.02,South,180,0.0,0.0,85,0.00,,,0.00,weatherlink.com 1.10,2013-06-23 13:24:00,
2013-06-23 08:39:00,78.3,74.0,30.03,South,171,0.0,0.0,86,0.00,,,0.00,weatherlink.com 1.10,2013-06-23 13:39:00,
2013-06-23 08:54:00,81.4,77.0,30.03,South,170,0.0,0.0,86,0.00,,,0.00,weatherlink.com 1.10,2013-06-23 13:54:00,
2013-06-23 09:09:00,82.7,78.0,30.03,SSE,163,0.0,0.0,84,0.00,,,0.00,weatherlink.com 1.10,2013-06-23 14:09:00,
2013-06-23 09:24:00,82.6,77.0,30.03,SE,131,0.0,0.0,82,0.00,,,0.00,weatherlink.com 1.10,2013-06-23 14:24:00,
2013-06-23 09:39:00,83.3,77.0,30.04,NNW,345,1.0,1.0,81,0.00,,,0.00,weatherlink.com 1.10,2013-06-23 14:39:00,
2013-06-23 09:54:00,85.1,77.0,30.04,SSE,147,0.0,3.0,76,0.00,,,0.00,weatherlink.com 1.10,2013-06-23 14:54:00,
2013-06-23 10:09:00,86.6,77.0,30.04,East,82,0.0,3.0,74,0.00,,,0.00,weatherlink.com 1.10,2013-06-23 15:09:00,
2013-06-23 10:24:00,86.6,77.0,30.04,WSW,241,1.0,3.0,72,0.00,,,0.00,weatherlink.com 1.10,2013-06-23 15:24:00,
2013-06-23 10:39:00,87.6,76.0,30.04,SE,125,0.0,2.0,69,0.00,,,0.00,weatherlink.com 1.10,2013-06-23 15:39:00,
2013-06-23 10:54:00,88.3,76.0,30.04,South,186,0.0,1.0,68,0.00,,,0.00,weatherlink.com 1.10,2013-06-23 15:54:00,
2013-06-23 11:09:00,88.6,77.0,30.04,South,190,0.0,2.0,68,0.00,,,0.00,weatherlink.com 1.10,2013-06-23 16:09:00,
2013-06-23 11:24:00,88.8,77.0,30.04,SE,143,0.0,3.0,68,0.00,,,0.00,weatherlink.com 1.10,2013-06-23 16:24:00,
2013-06-23 11:39:00,88.0,76.0,30.04,SW,234,0.0,3.0,67,0.00,,,0.00,weatherlink.com 1.10,2013-06-23 16:39:00,
2013-06-23 11:54:00,89.7,76.0,30.03,SE,125,0.0,4.0,64,0.00,,,0.00,weatherlink.com 1.10,2013-06-23 16:54:00,
2013-06-23 12:09:00,90.0,76.0,30.03,SSE,148,0.0,4.0,64,0.00,,,0.00,weatherlink.com 1.10,2013-06-23 17:09:00,
2013-06-23 12:24:00,90.0,75.0,30.02,SSW,197,0.0,3.0,62,0.00,,,0.00,weatherlink.com 1.10,2013-06-23 17:24:00,
2013-06-23 12:39:00,90.3,76.0,30.02,WSW,249,0.0,5.0,63,0.00,,,0.00,weatherlink.com 1.10,2013-06-23 17:39:00,
2013-06-23 12:54:00,90.5,75.0,30.01,South,170,0.0,5.0,61,0.00,,,0.00,weatherlink.com 1.10,2013-06-23 17:54:00,
2013-06-23 13:09:00,91.3,75.0,30.01,ESE,118,0.0,3.0,60,0.00,,,0.00,weatherlink.com 1.10,2013-06-23 18:09:00,
2013-06-23 13:25:00,91.8,74.0,30.01,SE,139,0.0,4.0,57,0.00,,,0.00,weatherlink.com 1.10,2013-06-23 18:25:00,
2013-06-23 13:39:00,91.9,76.0,30.00,SSE,166,0.0,5.0,59,0.00,,,0.00,weatherlink.com 1.10,2013-06-23 18:39:00,
2013-06-23 13:54:00,92.4,74.0,29.99,ESE,116,0.0,5.0,55,0.00,,,0.00,weatherlink.com 1.10,2013-06-23 18:54:00,
2013-06-23 14:09:00,92.2,75.0,29.99,WSW,255,0.0,5.0,57,0.00,,,0.00,weatherlink.com 1.10,2013-06-23 19:09:00,
2013-06-23 14:25:00,92.5,75.0,29.98,SE,124,0.0,5.0,56,0.00,,,0.00,weatherlink.com 1.10,2013-06-23 19:25:00,
2013-06-23 14:40:00,92.6,74.0,29.98,East,96,0.0,3.0,55,0.00,,,0.00,weatherlink.com 1.10,2013-06-23 19:40:00,
2013-06-23 14:55:00,93.1,73.0,29.97,SSW,195,2.0,4.0,53,0.00,,,0.00,weatherlink.com 1.10,2013-06-23 19:55:00,
2013-06-23 15:10:00,93.9,73.0,29.97,SE,132,0.0,5.0,51,0.00,,,0.00,weatherlink.com 1.10,2013-06-23 20:10:00,
2013-06-23 15:25:00,93.9,75.0,29.96,SE,144,0.0,4.0,54,0.00,,,0.00,weatherlink.com 1.10,2013-06-23 20:25:00,
2013-06-23 15:40:00,94.4,75.0,29.96,SSE,149,0.0,4.0,54,0.00,,,0.00,weatherlink.com 1.10,2013-06-23 20:40:00,
2013-06-23 15:55:00,94.1,73.0,29.96,WSW,243,1.0,4.0,50,0.00,,,0.00,weatherlink.com 1.10,2013-06-23 20:55:00,
2013-06-23 16:10:00,94.3,74.0,29.95,South,169,0.0,3.0,52,0.00,,,0.00,weatherlink.com 1.10,2013-06-23 21:10:00,
2013-06-23 16:25:00,94.2,75.0,29.96,South,176,0.0,1.0,54,0.00,,,0.00,weatherlink.com 1.10,2013-06-23 21:25:00,
2013-06-23 16:34:00,94.5,75.0,29.95,South,173,0.0,3.0,53,0.00,,,0.00,weatherlink.com 1.10,2013-06-23 21:34:00,
2013-06-23 16:47:00,94.1,74.0,29.95,South,184,0.0,3.0,52,0.00,,,0.00,weatherlink.com 1.10,2013-06-23 21:47:00,
2013-06-23 17:02:00,93.6,75.0,29.96,SW,224,0.0,3.0,54,0.00,,,0.00,weatherlink.com 1.10,2013-06-23 22:02:00,
2013-06-23 17:17:00,93.4,74.0,29.95,ESE,102,0.0,1.0,54,0.00,,,0.00,weatherlink.com 1.10,2013-06-23 22:17:00,
2013-06-23 17:32:00,93.6,73.0,29.95,SSW,203,0.0,1.0,52,0.00,,,0.00,weatherlink.com 1.10,2013-06-23 22:32:00,
2013-06-23 17:47:00,93.6,75.0,29.95,SSW,200,0.0,1.0,54,0.00,,,0.00,weatherlink.com 1.10,2013-06-23 22:47:00,
2013-06-23 18:02:00,93.4,74.0,29.94,South,182,1.0,2.0,54,0.00,,,0.00,weatherlink.com 1.10,2013-06-23 23:02:00,
2013-06-23 18:17:00,92.3,76.0,29.94,SE,138,0.0,2.0,59,0.00,,,0.00,weatherlink.com 1.10,2013-06-23 23:17:00,
2013-06-23 18:32:00,90.6,74.0,29.94,SE,138,0.0,3.0,59,0.00,,,0.00,weatherlink.com 1.10,2013-06-23 23:32:00,
2013-06-23 18:47:00,90.4,76.0,29.95,SE,138,0.0,1.0,62,0.00,,,0.00,weatherlink.com 1.10,2013-06-23 23:47:00,
2013-06-23 19:02:00,90.3,76.0,29.94,SE,134,0.0,1.0,63,0.00,,,0.00,weatherlink.com 1.10,2013-06-24 00:02:00,
2013-06-23 19:17:00,89.6,75.0,29.95,SE,134,0.0,1.0,63,0.00,,,0.00,weatherlink.com 1.10,2013-06-24 00:17:00,
2013-06-23 19:32:00,86.8,76.0,29.95,SE,138,0.0,1.0,69,0.00,,,0.00,weatherlink.com 1.10,2013-06-24 00:32:00,
2013-06-23 19:47:00,85.5,75.0,29.95,SE,138,0.0,1.0,71,0.00,,,0.00,weatherlink.com 1.10,2013-06-24 00:47:00,
2013-06-23 20:02:00,84.7,75.0,29.96,SE,138,0.0,0.0,73,0.00,,,0.00,weatherlink.com 1.10,2013-06-24 01:02:00,
2013-06-23 20:17:00,83.8,75.0,29.96,SE,144,0.0,3.0,75,0.00,,,0.00,weatherlink.com 1.10,2013-06-24 01:17:00,
2013-06-23 20:32:00,83.2,75.0,29.96,SE,144,0.0,1.0,76,0.00,,,0.00,weatherlink.com 1.10,2013-06-24 01:32:00,
2013-06-23 20:47:00,82.8,75.0,29.96,SE,134,0.0,1.0,77,0.00,,,0.00,weatherlink.com 1.10,2013-06-24 01:47:00,
2013-06-23 21:02:00,82.7,75.0,29.97,SE,135,0.0,2.0,77,0.00,,,0.00,weatherlink.com 1.10,2013-06-24 02:02:00,
2013-06-23 21:17:00,82.4,75.0,29.97,SE,135,0.0,0.0,78,0.00,,,0.00,weatherlink.com 1.10,2013-06-24 02:17:00,
2013-06-23 21:32:00,81.9,75.0,29.98,SE,135,0.0,0.0,79,0.00,,,0.00,weatherlink.com 1.10,2013-06-24 02:32:00,
2013-06-23 21:47:00,81.7,75.0,29.98,SE,135,0.0,0.0,80,0.00,,,0.00,weatherlink.com 1.10,2013-06-24 02:47:00,
2013-06-23 22:02:00,81.4,75.0,29.98,SE,133,0.0,0.0,81,0.00,,,0.00,weatherlink.com 1.10,2013-06-24 03:02:00,
2013-06-23 22:17:00,81.0,75.0,29.98,SE,129,0.0,0.0,81,0.00,,,0.00,weatherlink.com 1.10,2013-06-24 03:17:00,
2013-06-23 22:33:00,81.9,74.0,29.98,SE,130,0.0,0.0,78,0.00,,,0.00,weatherlink.com 1.10,2013-06-24 03:33:00,
2013-06-23 22:48:00,81.6,75.0,29.99,SE,128,0.0,0.0,79,0.00,,,0.00,weatherlink.com 1.10,2013-06-24 03:48:00,
2013-06-23 23:03:00,81.7,75.0,30.00,NW,311,0.0,0.0,80,0.00,,,0.00,weatherlink.com 1.10,2013-06-24 04:03:00,
2013-06-23 23:18:00,81.3,75.0,30.01,West,275,0.0,0.0,80,0.00,,,0.00,weatherlink.com 1.10,2013-06-24 04:18:00,
2013-06-23 23:33:00,80.8,75.0,30.01,West,275,0.0,0.0,81,0.00,,,0.00,weatherlink.com 1.10,2013-06-24 04:33:00,
2013-06-23 23:48:00,80.6,74.0,30.01,WSW,258,0.0,0.0,81,0.00,,,0.00,weatherlink.com 1.10,2013-06-24 04:48:00,